Time;durP1;ratioP1;P1;durP2;ratioP2;P2;SDS_P1;SDS_P2;PMS_P1;PMS_P2;Temp;Humidity;BMP_temperature;BMP_pressure;BME280_temperature;BME280_humidity;BME280_pressure;Samples;Min_cycle;Max_cycle;Signal;HPM_P1;HPM_P2
2023/12/27 00:01:27;;;;;;;0.50;0.50;;;;;;;1.15;90.71;99700.22;5065719;28;20051;-66
2023/12/27 00:03:52;;;;;;;0.60;0.60;;;;;;;1.12;90.72;99700.19;5065567;28;20025;-66
2023/12/27 00:06:18;;;;;;;1.90;1.25;;;;;;;1.15;90.81;99707.91;5065823;28;20024;-66
2023/12/27 00:08:43;;;;;;;1.63;0.90;;;;;;;1.18;90.95;99707.97;5065573;28;20044;-67
2023/12/27 00:11:08;;;;;;;0.73;0.73;;;;;;;1.18;90.77;99723.31;5047575;28;20384;-67
2023/12/27 00:13:34;;;;;;;1.00;0.90;;;;;;;1.17;90.88;99726.69;5065580;28;20032;-67
2023/12/27 00:15:59;;;;;;;0.50;0.50;;;;;;;1.20;90.82;99744.66;5065448;28;20052;-66
2023/12/27 00:18:24;;;;;;;0.45;0.45;;;;;;;1.19;90.96;99750.63;5047422;28;20024;-66
2023/12/27 00:20:49;;;;;;;6.50;0.82;;;;;;;1.11;90.67;99745.34;5065769;28;20040;-65
2023/12/27 00:23:15;;;;;;;1.33;1.10;;;;;;;1.14;90.62;99759.88;5065435;28;20032;-66
2023/12/27 00:25:41;;;;;;;6.20;1.05;;;;;;;1.15;90.52;99764.16;5065398;28;20025;-66
2023/12/27 00:28:06;;;;;;;0.60;0.60;;;;;;;1.07;90.55;99755.50;5065394;28;20033;-66
2023/12/27 00:30:31;;;;;;;0.52;0.52;;;;;;;1.22;90.59;99767.69;5065073;28;20037;-67
2023/12/27 00:32:57;;;;;;;2.22;2.05;;;;;;;1.18;90.66;99776.16;5064972;28;20029;-67
2023/12/27 00:35:22;;;;;;;0.73;0.73;;;;;;;1.19;91.14;99781.31;5065327;28;20488;-66
2023/12/27 00:37:48;;;;;;;0.68;0.68;;;;;;;1.17;90.78;99782.97;5065200;28;20025;-66
2023/12/27 00:40:13;;;;;;;1.27;1.17;;;;;;;1.21;90.27;99794.13;5065245;28;20025;-66
2023/12/27 00:42:39;;;;;;;1.02;1.02;;;;;;;1.22;90.49;99783.03;5065256;28;20032;-64
2023/12/27 00:45:05;;;;;;;0.50;0.50;;;;;;;1.23;90.64;99793.31;5065330;28;20055;-66
2023/12/27 00:47:30;;;;;;;2.08;1.00;;;;;;;1.25;90.85;99805.28;5064734;28;20393;-65
2023/12/27 00:49:55;;;;;;;1.85;1.58;;;;;;;1.20;90.97;99816.25;5065471;28;20108;-67
2023/12/27 00:52:21;;;;;;;0.90;0.90;;;;;;;1.26;90.70;99819.78;5064961;28;20025;-66
2023/12/27 00:54:46;;;;;;;0.98;0.60;;;;;;;1.23;90.99;99826.56;5047130;28;20029;-67
2023/12/27 00:57:11;;;;;;;0.68;0.45;;;;;;;1.31;91.22;99836.09;5064910;28;20028;-66
2023/12/27 00:59:37;;;;;;;3.38;0.85;;;;;;;1.30;91.56;99834.34;5065217;28;20029;-66
2023/12/27 01:02:02;;;;;;;0.82;0.82;;;;;;;1.27;91.65;99834.28;5064845;28;20017;-66
2023/12/27 01:04:28;;;;;;;0.65;0.65;;;;;;;1.22;91.60;99837.63;5064772;28;20457;-66
2023/12/27 01:06:53;;;;;;;0.60;0.60;;;;;;;1.21;91.28;99852.94;5064850;28;20044;-66
2023/12/27 01:09:19;;;;;;;0.47;0.47;;;;;;;1.22;90.86;99858.06;5064893;28;20031;-67
2023/12/27 01:11:44;;;;;;;0.40;0.40;;;;;;;1.18;90.86;99857.97;5064819;28;20032;-67
2023/12/27 01:14:09;;;;;;;0.50;0.50;;;;;;;1.19;90.74;99868.25;5064824;28;20049;-67
2023/12/27 01:16:35;;;;;;;0.50;0.50;;;;;;;1.22;90.83;99870.00;5064797;28;20025;-67
2023/12/27 01:19:00;;;;;;;0.50;0.50;;;;;;;1.22;91.02;99870.88;5064712;28;20031;-67
2023/12/27 01:21:25;;;;;;;0.90;0.90;;;;;;;1.15;91.33;99865.59;5064557;28;20021;-66
2023/12/27 01:23:51;;;;;;;0.77;0.77;;;;;;;1.22;91.13;99887.91;5064818;28;20071;-67
2023/12/27 01:26:16;;;;;;;0.47;0.47;;;;;;;1.28;91.34;99897.41;5064699;28;20025;-66
2023/12/27 01:28:42;;;;;;;1.00;0.70;;;;;;;1.32;91.67;99900.06;5064519;28;20025;-67
2023/12/27 01:31:09;;;;;;;1.85;1.65;;;;;;;1.29;91.97;99901.69;5046283;28;20025;-66
2023/12/27 01:33:35;;;;;;;0.50;0.50;;;;;;;1.36;92.13;99911.19;5064357;28;20045;-67
2023/12/27 01:36:07;;;;;;;2.72;0.98;;;;;;;1.38;92.14;99919.78;5064667;28;20082;-67
2023/12/27 01:38:33;;;;;;;;;;;;;;;1.43;92.21;99917.31;5064686;28;20021;-67
2023/12/27 01:40:59;;;;;;;39.40;2.28;;;;;;;1.42;92.24;99916.44;5064620;28;19992;-67
2023/12/27 01:43:24;;;;;;;0.88;0.88;;;;;;;1.40;92.20;99927.47;5064566;28;20409;-67
2023/12/27 01:45:50;;;;;;;14.60;1.17;;;;;;;1.37;92.08;99915.50;5066476;28;20082;-67
2023/12/27 01:48:20;;;;;;;13.15;3.03;;;;;;;1.41;92.13;99930.06;5068138;28;20028;-67
2023/12/27 01:50:46;;;;;;;0.52;0.52;;;;;;;1.40;92.29;99937.72;5050279;28;20029;-67
2023/12/27 01:53:12;;;;;;;0.50;0.50;;;;;;;1.40;92.51;99936.03;5068221;28;20017;-67
2023/12/27 01:55:37;;;;;;;2.05;1.35;;;;;;;1.40;92.58;99937.72;5068303;28;20087;-67
2023/12/27 01:58:07;;;;;;;1.02;1.00;;;;;;;1.41;92.60;99944.56;5068179;28;20029;-67
2023/12/27 02:00:36;;;;;;;0.50;0.50;;;;;;;1.36;92.55;99934.22;5050233;28;20381;-67
2023/12/27 02:03:01;;;;;;;0.65;0.65;;;;;;;1.31;92.58;99935.84;5067474;28;20504;-67
2023/12/27 02:05:26;;;;;;;0.50;0.50;;;;;;;1.27;92.26;99939.13;5067748;28;20021;-67
2023/12/27 02:07:52;;;;;;;0.70;0.70;;;;;;;1.17;92.11;99932.94;5067982;28;20025;-67
2023/12/27 02:10:17;;;;;;;0.45;0.45;;;;;;;1.19;92.15;99950.06;5067962;28;20025;-67
2023/12/27 02:12:42;;;;;;;0.70;0.70;;;;;;;1.17;92.25;99953.41;5067794;28;20021;-67
2023/12/27 02:15:08;;;;;;;0.50;0.50;;;;;;;1.11;92.35;99951.59;5067915;28;20198;-68
2023/12/27 02:17:34;;;;;;;0.50;0.50;;;;;;;0.98;92.26;99938.53;5067380;28;20036;-68
2023/12/27 02:20:00;;;;;;;0.50;0.50;;;;;;;1.05;92.43;99956.56;5067996;28;20037;-67
2023/12/27 02:22:27;;;;;;;0.73;0.73;;;;;;;0.98;92.28;99964.09;5067803;28;20017;-67
2023/12/27 02:24:53;;;;;;;0.50;0.50;;;;;;;0.99;92.32;99958.13;5068337;28;20021;-67
2023/12/27 02:27:19;;;;;;;0.82;0.82;;;;;;;1.00;92.33;99964.13;5067815;28;20029;-67
2023/12/27 02:29:45;;;;;;;0.50;0.50;;;;;;;0.97;92.37;99964.94;5067422;28;20053;-67
2023/12/27 02:32:10;;;;;;;5.78;0.95;;;;;;;0.95;92.53;99969.13;5067498;28;20048;-67
2023/12/27 02:34:35;;;;;;;0.68;0.68;;;;;;;0.92;92.51;99980.97;5067469;28;20017;-67
2023/12/27 02:37:01;;;;;;;0.50;0.50;;;;;;;0.83;92.25;99977.34;5049357;28;20033;-67
2023/12/27 02:39:26;;;;;;;0.70;0.70;;;;;;;0.83;92.28;99982.47;5067413;28;20036;-67
2023/12/27 02:41:52;;;;;;;0.80;0.80;;;;;;;0.81;92.32;99991.81;5067372;28;20029;-67
2023/12/27 02:44:18;;;;;;;1.65;1.17;;;;;;;0.74;93.04;99998.44;5067389;28;20025;-67
2023/12/27 02:46:43;;;;;;;0.43;0.43;;;;;;;0.75;92.55;100001.88;5067205;28;20054;-67
2023/12/27 02:49:09;;;;;;;0.40;0.40;;;;;;;0.79;92.51;100010.47;5048992;28;20089;-67
2023/12/27 02:51:34;;;;;;;0.70;0.70;;;;;;;0.71;92.43;100010.28;5067247;28;20050;-67
2023/12/27 02:53:59;;;;;;;0.50;0.50;;;;;;;0.66;92.49;100017.81;5067350;28;20029;-67
2023/12/27 02:56:25;;;;;;;4.97;1.00;;;;;;;0.63;92.51;100020.28;5047944;28;20041;-67
2023/12/27 02:58:50;;;;;;;0.85;0.85;;;;;;;0.63;92.46;100025.41;5067039;28;20494;-67
2023/12/27 03:01:15;;;;;;;0.63;0.63;;;;;;;0.55;92.40;100025.22;5067033;28;20025;-67
2023/12/27 03:03:41;;;;;;;2.17;1.42;;;;;;;0.55;92.46;100029.44;5066668;28;20541;-67
2023/12/27 03:06:06;;;;;;;0.60;0.60;;;;;;;0.56;92.54;100038.84;5066849;28;20104;-67
2023/12/27 03:08:33;;;;;;;1.38;1.27;;;;;;;0.56;92.81;100044.81;5066685;28;20017;-67
2023/12/27 03:10:58;;;;;;;1.90;0.82;;;;;;;0.54;92.83;100054.16;5048861;28;20056;-66
2023/12/27 03:13:23;;;;;;;0.57;0.57;;;;;;;0.55;92.82;100047.31;5066775;28;20021;-66
2023/12/27 03:15:49;;;;;;;0.85;0.85;;;;;;;0.55;92.54;100060.09;5066937;28;20025;-67
2023/12/27 03:18:14;;;;;;;7.13;1.40;;;;;;;0.58;92.57;100067.84;5066784;28;20032;-66
2023/12/27 03:20:40;;;;;;;0.50;0.50;;;;;;;0.49;92.73;100065.91;5066538;28;20377;-66
2023/12/27 03:23:05;;;;;;;0.60;0.60;;;;;;;0.48;92.57;100077.81;5066414;28;20021;-67
2023/12/27 03:25:31;;;;;;;1.33;1.23;;;;;;;0.49;92.50;100082.13;5048709;28;20112;-66
2023/12/27 03:27:56;;;;;;;0.60;0.60;;;;;;;0.46;92.50;100087.13;5066563;28;20048;-66
2023/12/27 03:30:21;;;;;;;0.77;0.77;;;;;;;0.33;92.53;100077.41;5066254;28;20041;-67
2023/12/27 03:32:47;;;;;;;0.60;0.60;;;;;;;0.41;92.66;100101.47;5066257;28;20025;-66
2023/12/27 03:35:12;;;;;;;1.05;0.77;;;;;;;0.35;92.74;100112.34;5066544;28;20078;-66
2023/12/27 03:37:38;;;;;;;0.75;0.75;;;;;;;0.29;92.59;100106.22;5066361;28;20048;-66
2023/12/27 03:40:04;;;;;;;0.75;0.60;;;;;;;0.18;92.02;100114.44;5066500;28;20024;-67
2023/12/27 03:42:30;;;;;;;0.57;0.57;;;;;;;0.21;92.12;100129.84;5048313;28;20044;-66
2023/12/27 03:44:55;;;;;;;0.50;0.50;;;;;;;-0.04;91.74;100115.47;5066320;28;20452;-67
2023/12/27 03:47:21;;;;;;;0.60;0.60;;;;;;;0.08;91.55;100128.59;5066384;28;20055;-67
2023/12/27 03:49:46;;;;;;;0.57;0.57;;;;;;;0.06;90.83;100134.50;5066010;28;20024;-67
2023/12/27 03:52:11;;;;;;;0.50;0.50;;;;;;;0.10;91.17;100144.84;5066133;28;20068;-66
2023/12/27 03:54:38;;;;;;;1.45;1.35;;;;;;;0.09;91.01;100149.91;5066298;28;20100;-67
2023/12/27 03:57:04;;;;;;;3.53;1.10;;;;;;;0.17;91.36;100163.78;5065741;28;20425;-67
2023/12/27 03:59:29;;;;;;;1.55;1.45;;;;;;;0.17;91.81;100160.34;5066007;28;20028;-67
2023/12/27 04:01:54;;;;;;;0.73;0.73;;;;;;;0.17;92.13;100161.22;5065801;28;20025;-66
2023/12/27 04:04:20;;;;;;;0.50;0.50;;;;;;;0.12;92.10;100150.00;5065618;28;20025;-67
2023/12/27 04:06:45;;;;;;;0.50;0.50;;;;;;;0.26;92.13;100169.97;5065893;28;20151;-67
2023/12/27 04:09:12;;;;;;;16.60;1.02;;;;;;;0.32;92.30;100175.28;5047504;28;20452;-67
2023/12/27 04:11:45;;;;;;;0.50;0.50;;;;;;;0.36;92.32;100182.19;5047735;28;20025;-66
2023/12/27 04:14:11;;;;;;;0.50;0.50;;;;;;;0.29;92.34;100167.53;5066010;28;20044;-67
2023/12/27 04:16:36;;;;;;;0.55;0.55;;;;;;;0.41;92.30;100193.41;5065697;28;20029;-66
2023/12/27 04:19:02;;;;;;;0.40;0.40;;;;;;;0.48;92.00;100189.34;5065426;28;20056;-66
2023/12/27 04:21:27;;;;;;;0.50;0.50;;;;;;;0.43;91.76;100186.66;5065863;28;20131;-67
2023/12/27 04:23:52;;;;;;;0.50;0.50;;;;;;;0.59;91.92;100197.34;5065549;28;20374;-67
2023/12/27 04:26:18;;;;;;;2.47;1.02;;;;;;;0.56;91.84;100202.34;5065386;28;20051;-66
2023/12/27 04:28:43;;;;;;;0.45;0.45;;;;;;;0.61;91.80;100200.78;5047363;28;20055;-66
2023/12/27 04:31:09;;;;;;;0.70;0.70;;;;;;;0.60;91.90;100199.06;5065421;28;20021;-66
2023/12/27 04:33:34;;;;;;;0.70;0.70;;;;;;;0.67;92.12;100208.63;5047210;28;20048;-67
2023/12/27 04:35:59;;;;;;;0.50;0.50;;;;;;;0.67;92.53;100212.88;5065453;28;20017;-66
2023/12/27 04:38:25;;;;;;;0.95;0.95;;;;;;;0.63;92.58;100201.69;5065292;28;20020;-67
2023/12/27 04:40:51;;;;;;;0.80;0.80;;;;;;;0.58;92.61;100195.59;5047291;28;20496;-66
2023/12/27 04:43:16;;;;;;;0.52;0.52;;;;;;;0.66;92.53;100203.47;5065091;28;20032;-67
2023/12/27 04:45:42;;;;;;;0.60;0.60;;;;;;;0.69;92.49;100208.66;5065292;28;20025;-67
2023/12/27 04:48:07;;;;;;;5.57;1.33;;;;;;;0.63;92.98;100196.59;5065054;28;20108;-66
2023/12/27 04:50:33;;;;;;;0.88;0.60;;;;;;;0.79;93.13;100202.13;5065265;28;20036;-66
2023/12/27 04:52:58;;;;;;;7.03;1.27;;;;;;;0.83;93.20;100212.47;5065074;28;20025;-66
2023/12/27 04:55:23;;;;;;;0.93;0.93;;;;;;;0.86;93.32;100214.28;5065167;28;20028;-67
2023/12/27 04:57:49;;;;;;;0.50;0.50;;;;;;;0.87;93.32;100228.78;5064988;28;20017;-67
2023/12/27 05:00:14;;;;;;;0.50;0.50;;;;;;;0.85;93.12;100241.53;5064942;28;20020;-66
2023/12/27 05:02:40;;;;;;;0.50;0.50;;;;;;;0.85;93.07;100250.88;5064785;28;20152;-65
2023/12/27 05:05:06;;;;;;;0.50;0.50;;;;;;;0.61;92.96;100224.66;5065087;28;20032;-66
2023/12/27 05:07:32;;;;;;;0.50;0.50;;;;;;;0.80;92.61;100257.56;5065004;28;20087;-68
2023/12/27 05:09:58;;;;;;;1.40;0.95;;;;;;;0.74;92.50;100236.09;5065141;28;20025;-67
2023/12/27 05:12:23;;;;;;;0.75;0.75;;;;;;;0.70;92.49;100264.94;5064747;28;20048;-68
2023/12/27 05:14:48;;;;;;;0.47;0.47;;;;;;;0.77;92.68;100270.25;5065074;28;20025;-68
2023/12/27 05:17:14;;;;;;;1.77;1.63;;;;;;;0.81;93.00;100279.72;5064952;28;20115;-67
2023/12/27 05:19:39;;;;;;;0.50;0.50;;;;;;;0.76;93.04;100281.28;5064747;28;20048;-68
2023/12/27 05:22:04;;;;;;;1.13;1.05;;;;;;;0.76;92.92;100271.94;5069233;28;20028;-67
2023/12/27 05:24:30;;;;;;;0.50;0.50;;;;;;;0.74;92.89;100289.78;5068961;28;20508;-67
2023/12/27 05:26:55;;;;;;;0.50;0.50;;;;;;;0.68;92.68;100276.81;5068959;28;20041;-67
2023/12/27 05:29:21;;;;;;;0.50;0.50;;;;;;;0.69;92.59;100287.88;5068753;28;20049;-67
2023/12/27 05:31:46;;;;;;;10.85;0.80;;;;;;;0.65;92.38;100288.63;5050441;28;20116;-68
2023/12/27 05:34:11;;;;;;;0.82;0.82;;;;;;;0.59;92.15;100302.94;5068697;28;20025;-66
2023/12/27 05:36:36;;;;;;;0.50;0.50;;;;;;;0.59;92.38;100290.16;5068618;28;20088;-68
2023/12/27 05:39:03;;;;;;;0.50;0.50;;;;;;;0.58;92.75;100277.34;5068191;28;20021;-67
2023/12/27 05:41:29;;;;;;;0.55;0.55;;;;;;;0.56;92.96;100286.66;5068625;28;20025;-68
2023/12/27 05:43:54;;;;;;;1.05;1.05;;;;;;;0.51;92.73;100290.75;5050607;28;20021;-68
2023/12/27 05:46:20;;;;;;;0.70;0.70;;;;;;;0.48;93.04;100291.50;5068607;28;20043;-67
2023/12/27 05:48:45;;;;;;;0.55;0.55;;;;;;;0.20;93.21;100267.66;5068465;28;20024;-67
2023/12/27 05:51:11;;;;;;;0.50;0.50;;;;;;;0.40;93.12;100311.72;5068745;28;20129;-68
2023/12/27 05:53:36;;;;;;;1.95;1.58;;;;;;;0.35;93.08;100323.50;5068707;28;20020;-68
2023/12/27 05:56:02;;;;;;;0.60;0.60;;;;;;;0.31;93.26;100344.63;5067960;28;20110;-66
2023/12/27 05:58:28;;;;;;;0.80;0.80;;;;;;;0.23;93.34;100352.03;5068447;28;20024;-68
2023/12/27 06:00:54;;;;;;;0.95;0.95;;;;;;;0.20;93.29;100365.56;5068323;28;20017;-67
2023/12/27 06:03:19;;;;;;;1.45;1.35;;;;;;;0.18;93.28;100387.63;5068286;28;20025;-68
2023/12/27 06:05:44;;;;;;;0.57;0.55;;;;;;;0.15;93.37;100390.06;5068520;28;20028;-68
2023/12/27 06:08:10;;;;;;;0.98;0.95;;;;;;;0.13;93.37;100396.81;5068376;28;20171;-68
2023/12/27 06:10:36;;;;;;;0.50;0.50;;;;;;;0.13;93.49;100393.41;5068418;28;20021;-67
2023/12/27 06:13:02;;;;;;;1.02;1.02;;;;;;;0.04;93.34;100394.81;5068204;28;20597;-68
2023/12/27 06:15:27;;;;;;;0.70;0.70;;;;;;;0.10;93.43;100406.91;5068354;28;20081;-68
2023/12/27 06:17:53;;;;;;;0.65;0.65;;;;;;;0.11;93.65;100419.72;5067772;28;20488;-67
2023/12/27 06:20:19;;;;;;;0.50;0.50;;;;;;;0.11;93.54;100419.72;5068033;28;20024;-68
2023/12/27 06:22:44;;;;;;;0.50;0.50;;;;;;;0.19;93.61;100421.69;5068236;28;20027;-68
2023/12/27 06:25:09;;;;;;;0.50;0.50;;;;;;;0.19;93.36;100427.66;5067994;28;20046;-69
2023/12/27 06:27:34;;;;;;;1.20;1.10;;;;;;;0.28;93.44;100437.34;5067717;28;20111;-68
2023/12/27 06:30:00;;;;;;;3.42;1.30;;;;;;;0.30;93.46;100433.16;5049889;28;20049;-68
2023/12/27 06:32:25;;;;;;;5.53;0.77;;;;;;;0.33;93.21;100445.16;5067533;28;20107;-68
2023/12/27 06:34:50;;;;;;;0.63;0.63;;;;;;;0.34;93.01;100451.97;5049747;28;20362;-69
2023/12/27 06:37:16;;;;;;;0.85;0.70;;;;;;;0.26;92.62;100443.22;5067956;28;20027;-69
2023/12/27 06:39:42;;;;;;;1.65;1.55;;;;;;;0.37;92.68;100457.19;5067822;28;20025;-69
2023/12/27 06:42:07;;;;;;;0.70;0.70;;;;;;;0.38;92.65;100463.19;5049471;28;20485;-68
2023/12/27 06:44:33;;;;;;;0.90;0.90;;;;;;;0.42;92.76;100467.56;5067752;28;20048;-68
2023/12/27 06:46:59;;;;;;;4.32;1.15;;;;;;;0.43;92.56;100470.19;5067675;28;20029;-68
2023/12/27 06:49:24;;;;;;;0.60;0.60;;;;;;;0.47;92.24;100489.91;5067574;28;20025;-69
2023/12/27 06:51:50;;;;;;;0.50;0.50;;;;;;;0.45;92.38;100481.31;5067423;28;20059;-67
2023/12/27 06:54:15;;;;;;;0.70;0.70;;;;;;;0.52;92.15;100504.53;5067204;28;20013;-68
2023/12/27 06:56:40;;;;;;;0.70;0.70;;;;;;;0.47;91.80;100497.59;5049479;28;20065;-66
2023/12/27 06:59:06;;;;;;;0.75;0.73;;;;;;;0.53;91.76;100507.13;5049483;28;20029;-67
2023/12/27 07:01:31;;;;;;;0.77;0.77;;;;;;;0.56;91.72;100531.94;5067259;28;20584;-68
2023/12/27 07:03:57;;;;;;;0.50;0.50;;;;;;;0.61;91.49;100540.59;5067137;28;20021;-67
2023/12/27 07:06:22;;;;;;;17.02;2.28;;;;;;;0.60;91.57;100536.31;5067364;28;20031;-67
2023/12/27 07:08:47;;;;;;;0.57;0.57;;;;;;;0.58;91.60;100538.81;5067128;28;20021;-68
2023/12/27 07:11:20;;;;;;;0.50;0.50;;;;;;;0.61;91.33;100549.16;5067255;28;20020;-67
2023/12/27 07:13:46;;;;;;;0.95;0.95;;;;;;;0.59;91.43;100549.94;5067095;28;20021;-67
2023/12/27 07:16:14;;;;;;;0.50;0.50;;;;;;;0.61;90.90;100558.50;5067193;28;20029;-68
2023/12/27 07:18:40;;;;;;;0.90;0.90;;;;;;;0.56;91.15;100554.94;5066992;28;20093;-68
2023/12/27 07:21:06;;;;;;;0.50;0.50;;;;;;;0.60;90.92;100561.88;5067118;28;20035;-68
2023/12/27 07:23:31;;;;;;;2.67;1.38;;;;;;;0.61;90.98;100568.72;5066831;28;20080;-68
2023/12/27 07:25:59;;;;;;;1.05;0.80;;;;;;;0.64;91.08;100566.25;5066857;28;20033;-68
2023/12/27 07:28:25;;;;;;;0.60;0.60;;;;;;;0.63;91.10;100572.19;5067030;28;20021;-68
2023/12/27 07:30:50;;;;;;;0.60;0.60;;;;;;;0.63;91.22;100582.41;5066748;28;20049;-67
2023/12/27 07:33:16;;;;;;;0.47;0.47;;;;;;;0.67;91.02;100584.25;5066564;28;20119;-68
2023/12/27 07:35:43;;;;;;;0.50;0.50;;;;;;;0.64;91.41;100576.47;5048890;28;20025;-68
2023/12/27 07:38:08;;;;;;;0.60;0.60;;;;;;;0.71;91.33;100596.34;5066813;28;20025;-67
2023/12/27 07:40:34;;;;;;;0.50;0.50;;;;;;;0.63;91.18;100584.09;5066792;28;20053;-68
2023/12/27 07:43:02;;;;;;;1.27;0.80;;;;;;;0.74;91.29;100609.22;5065728;28;20037;-67
2023/12/27 07:45:27;;;;;;;0.50;0.50;;;;;;;0.75;91.24;100612.66;5066704;28;20029;-68
2023/12/27 07:47:52;;;;;;;0.50;0.50;;;;;;;0.74;91.02;100616.00;5066457;28;20075;-68
2023/12/27 07:50:17;;;;;;;0.40;0.40;;;;;;;0.74;90.99;100611.78;5066615;28;20476;-69
2023/12/27 07:52:43;;;;;;;0.45;0.45;;;;;;;0.78;90.88;100617.88;5066297;28;20048;-68
2023/12/27 07:55:08;;;;;;;0.47;0.47;;;;;;;0.86;90.99;100626.66;5066387;28;20476;-68
2023/12/27 07:57:34;;;;;;;1.17;1.08;;;;;;;0.89;91.14;100625.91;5066455;28;20215;-68
2023/12/27 07:59:59;;;;;;;0.50;0.50;;;;;;;0.87;90.93;100617.31;5066345;28;20029;-68
2023/12/27 08:02:25;;;;;;;0.50;0.50;;;;;;;0.92;90.70;100626.03;5066372;28;20024;-68
2023/12/27 08:04:50;;;;;;;0.50;0.50;;;;;;;0.89;89.98;100623.38;5065867;28;20036;-68
2023/12/27 08:07:16;;;;;;;0.50;0.50;;;;;;;0.92;89.77;100631.13;5066105;28;20482;-68
2023/12/27 08:09:41;;;;;;;0.60;0.60;;;;;;;0.95;89.74;100644.03;5066128;28;20029;-67
2023/12/27 08:12:08;;;;;;;1.35;1.25;;;;;;;0.97;90.10;100639.84;5065920;28;20090;-67
2023/12/27 08:14:33;;;;;;;0.98;0.98;;;;;;;1.10;90.27;100650.50;5066031;28;20071;-68
2023/12/27 08:16:58;;;;;;;1.20;0.75;;;;;;;1.23;90.27;100647.53;5065831;28;20032;-67
2023/12/27 08:19:24;;;;;;;0.50;0.50;;;;;;;1.32;90.19;100651.22;5065562;28;20520;-68
2023/12/27 08:21:49;;;;;;;2.85;1.58;;;;;;;1.39;90.04;100663.38;5065917;28;20025;-68
2023/12/27 08:24:14;;;;;;;3.53;3.22;;;;;;;1.33;89.35;100663.19;5065774;28;20028;-68
2023/12/27 08:26:40;;;;;;;9.52;2.63;;;;;;;1.30;89.31;100676.75;5065790;28;20224;-68
2023/12/27 08:29:05;;;;;;;4.60;1.38;;;;;;;1.22;89.49;100676.50;5065431;28;20461;-68
2023/12/27 08:31:31;;;;;;;2.15;1.38;;;;;;;1.26;89.71;100694.50;5065579;28;20036;-68
2023/12/27 08:33:59;;;;;;;0.50;0.50;;;;;;;1.28;89.99;100696.28;5065246;28;20080;-68
2023/12/27 08:36:25;;;;;;;0.77;0.77;;;;;;;1.23;90.23;100685.88;5047810;28;20443;-68
2023/12/27 08:38:50;;;;;;;7.82;2.15;;;;;;;1.30;90.00;100699.75;5065429;28;20048;-68
2023/12/27 08:41:16;;;;;;;0.90;0.50;;;;;;;1.22;89.88;100689.28;5065500;28;20469;-68
2023/12/27 08:43:42;;;;;;;0.98;0.95;;;;;;;1.16;89.93;100690.75;5047353;28;20028;-69
2023/12/27 08:46:11;;;;;;;1.05;0.80;;;;;;;1.19;90.02;100706.19;5065554;28;20036;-69
2023/12/27 08:48:37;;;;;;;0.52;0.52;;;;;;;1.16;90.15;100706.97;5065253;28;20021;-69
2023/12/27 08:51:02;;;;;;;3.50;2.90;;;;;;;1.10;90.29;100711.88;5047443;28;20434;-69
2023/12/27 08:53:29;;;;;;;2.17;1.98;;;;;;;1.10;90.40;100714.44;5065153;28;20535;-69
2023/12/27 08:55:54;;;;;;;0.70;0.70;;;;;;;1.22;90.99;100716.53;5065233;28;20021;-69
2023/12/27 08:58:20;;;;;;;0.50;0.50;;;;;;;1.31;90.98;100728.78;5065000;28;20084;-69
2023/12/27 09:00:45;;;;;;;0.70;0.70;;;;;;;1.37;90.98;100721.31;5065292;28;20021;-69
2023/12/27 09:03:11;;;;;;;0.50;0.50;;;;;;;1.38;91.01;100728.16;5064747;28;20028;-69
2023/12/27 09:05:36;;;;;;;0.50;0.50;;;;;;;1.30;90.87;100725.34;5065233;28;20112;-68
2023/12/27 09:08:02;;;;;;;0.43;0.43;;;;;;;1.37;90.94;100731.56;5047056;28;20017;-69
2023/12/27 09:10:28;;;;;;;0.50;0.50;;;;;;;1.39;90.99;100737.56;5065159;28;20404;-69
2023/12/27 09:12:53;;;;;;;0.50;0.50;;;;;;;1.40;91.20;100741.91;5064958;28;20081;-69
2023/12/27 09:15:18;;;;;;;7.00;0.90;;;;;;;1.37;91.19;100731.56;5065016;28;20127;-69
2023/12/27 09:17:44;;;;;;;0.60;0.60;;;;;;;1.52;91.50;100750.81;5065033;28;20144;-69
2023/12/27 09:20:09;;;;;;;0.90;0.85;;;;;;;1.72;91.80;100747.25;5064902;28;20029;-69
2023/12/27 09:22:35;;;;;;;1.85;0.68;;;;;;;1.76;91.05;100749.91;5064716;28;20029;-68
2023/12/27 09:25:01;;;;;;;0.70;0.70;;;;;;;1.73;90.60;100777.13;5064517;28;20025;-69
2023/12/27 09:27:27;;;;;;;0.70;0.70;;;;;;;1.68;90.23;100767.53;5065168;28;20025;-69
2023/12/27 09:29:52;;;;;;;0.60;0.60;;;;;;;1.69;90.05;100776.97;5046817;28;20056;-69
2023/12/27 09:32:18;;;;;;;0.50;0.50;;;;;;;1.60;89.51;100767.28;5064993;28;20025;-68
2023/12/27 09:34:43;;;;;;;0.60;0.60;;;;;;;1.54;89.32;100773.06;5064791;28;20021;-69
2023/12/27 09:37:09;;;;;;;1.05;0.95;;;;;;;1.50;89.24;100784.03;5064888;28;20025;-69
2023/12/27 09:39:34;;;;;;;0.60;0.60;;;;;;;1.42;88.65;100780.31;5064808;28;20470;-69
2023/12/27 09:42:00;;;;;;;0.50;0.50;;;;;;;1.37;88.38;100772.50;5064797;28;20499;-68
2023/12/27 09:44:25;;;;;;;0.50;0.50;;;;;;;1.44;89.06;100773.56;5064620;28;20032;-69
2023/12/27 09:46:51;;;;;;;0.60;0.60;;;;;;;1.84;89.75;100782.63;5064804;28;20386;-68
2023/12/27 09:49:20;;;;;;;0.40;0.40;;;;;;;2.44;89.72;100780.25;5064485;28;20025;-68
2023/12/27 09:51:47;;;;;;;0.50;0.50;;;;;;;3.16;88.98;100784.91;5064795;28;20028;-70
2023/12/27 09:54:14;;;;;;;0.95;0.90;;;;;;;3.71;87.75;100783.78;5064686;28;20080;-68
2023/12/27 09:56:39;;;;;;;0.60;0.60;;;;;;;4.21;87.34;100780.75;5064612;28;20028;-68
2023/12/27 09:59:07;;;;;;;0.52;0.52;;;;;;;4.70;86.19;100798.13;5064826;28;20021;-69
2023/12/27 10:01:37;;;;;;;1.35;0.70;;;;;;;5.16;85.27;100799.94;5064759;28;20116;-68
2023/12/27 10:04:31;;;;;;;0.75;0.75;;;;;;;5.70;84.10;100804.38;5064398;28;20017;-68
2023/12/27 10:06:58;;;;;;;0.80;0.75;;;;;;;5.97;82.27;100810.00;5057456;28;20032;-68
2023/12/27 10:09:23;;;;;;;1.17;1.02;;;;;;;6.26;81.24;100807.91;5068336;28;20025;-69
2023/12/27 10:11:49;;;;;;;1.05;1.02;;;;;;;6.40;81.50;100823.63;5050431;28;20032;-69
2023/12/27 10:14:16;;;;;;;0.60;0.60;;;;;;;6.59;82.04;100831.63;5068374;28;20039;-68
2023/12/27 10:16:41;;;;;;;1.80;1.08;;;;;;;6.71;80.98;100830.09;5067952;28;20032;-68
2023/12/27 10:19:07;;;;;;;1.23;0.85;;;;;;;6.78;80.91;100831.91;5068113;28;20045;-69
2023/12/27 10:21:42;;;;;;;1.25;1.17;;;;;;;6.76;80.94;100833.59;5068095;28;20025;-68
2023/12/27 10:24:09;;;;;;;0.65;0.65;;;;;;;6.73;79.45;100839.56;5067894;28;20049;-69
2023/12/27 10:26:35;;;;;;;1.10;1.00;;;;;;;6.55;76.62;100841.03;5049926;28;20024;-69
2023/12/27 10:29:01;;;;;;;0.65;0.60;;;;;;;6.50;82.01;100836.66;5067873;28;20043;-68
2023/12/27 10:31:26;;;;;;;0.50;0.50;;;;;;;6.28;83.60;100833.72;5068108;28;20025;-69
2023/12/27 10:33:52;;;;;;;0.88;0.68;;;;;;;6.02;81.62;100839.31;5067737;28;20017;-69
2023/12/27 10:36:17;;;;;;;1.90;0.98;;;;;;;5.83;83.09;100844.13;5067878;28;20468;-69
2023/12/27 10:38:45;;;;;;;0.55;0.55;;;;;;;5.58;82.68;100843.66;5067891;28;20025;-70
2023/12/27 10:41:10;;;;;;;3.17;1.15;;;;;;;5.19;81.93;100846.31;5067843;28;20025;-69
2023/12/27 10:43:36;;;;;;;0.90;0.80;;;;;;;4.81;80.32;100833.50;5049591;28;20017;-69
2023/12/27 10:46:10;;;;;;;0.65;0.60;;;;;;;4.66;81.11;100836.59;5067824;28;20052;-69
2023/12/27 10:48:40;;;;;;;5.47;0.90;;;;;;;4.53;82.06;100841.47;5049164;28;20025;-70
2023/12/27 10:51:09;;;;;;;1.15;0.73;;;;;;;4.46;83.47;100843.03;5067638;28;20025;-70
2023/12/27 10:53:35;;;;;;;1.17;0.98;;;;;;;4.35;83.78;100839.31;5067592;28;20079;-70
2023/12/27 10:56:04;;;;;;;0.73;0.73;;;;;;;4.17;83.46;100850.03;5067673;28;20067;-68
2023/12/27 10:58:33;;;;;;;0.50;0.50;;;;;;;4.09;83.84;100847.22;5067474;28;20085;-68
2023/12/27 11:01:00;;;;;;;0.60;0.60;;;;;;;3.95;83.93;100846.88;5067619;28;20039;-69
2023/12/27 11:03:28;;;;;;;0.45;0.45;;;;;;;3.80;84.16;100834.53;5067111;28;20047;-69
2023/12/27 11:05:55;;;;;;;0.65;0.65;;;;;;;3.79;83.02;100855.88;5049542;28;20031;-68
2023/12/27 11:08:23;;;;;;;0.50;0.50;;;;;;;3.62;82.96;100828.06;5067350;28;20035;-68
2023/12/27 11:10:49;;;;;;;0.88;0.85;;;;;;;3.77;82.99;100849.84;5067366;28;20029;-68
2023/12/27 11:13:17;;;;;;;0.88;0.70;;;;;;;3.89;82.72;100850.19;5067401;28;20048;-68
2023/12/27 11:15:45;;;;;;;0.50;0.50;;;;;;;4.22;80.86;100836.44;5067195;28;20108;-68
2023/12/27 11:18:11;;;;;;;3.13;1.02;;;;;;;4.53;78.41;100838.91;5066013;28;20020;-69
2023/12/27 11:20:39;;;;;;;0.50;0.50;;;;;;;4.71;76.88;100842.72;5067034;28;20047;-69
2023/12/27 11:23:05;;;;;;;0.80;0.80;;;;;;;4.98;75.23;100848.44;5066996;28;20021;-68
2023/12/27 11:25:31;;;;;;;0.50;0.50;;;;;;;5.23;74.10;100861.81;5066842;28;20047;-69
2023/12/27 11:27:58;;;;;;;0.70;0.70;;;;;;;5.48;73.20;100857.22;5066449;28;20028;-68
2023/12/27 11:30:25;;;;;;;1.80;1.02;;;;;;;5.51;72.58;100852.97;5048734;28;20113;-69